Time;durP1;ratioP1;P1;durP2;ratioP2;P2;SDS_P1;SDS_P2;PMS_P1;PMS_P2;Temp;Humidity;BMP_temperature;BMP_pressure;BME280_temperature;BME280_humidity;BME280_pressure;Samples;Min_cycle;Max_cycle;Signal;HPM_P1;HPM_P2
2022/08/27 00:01:34;;;;;;;;;;;;;;;26.08;100.00;98886.03;5052400;28;20780;-45
2022/08/27 00:03:59;;;;;;;;;;;;;;;25.64;100.00;98887.69;5055624;28;20266;-45
2022/08/27 00:06:25;;;;;;;;;;;;;;;25.14;100.00;98888.88;5052784;28;20725;-45
2022/08/27 00:08:50;;;;;;;;;;;;;;;24.77;100.00;98888.84;5054309;28;20027;-45
2022/08/27 00:11:17;;;;;;;;;;;;;;;25.09;100.00;98885.00;5051273;28;19925;-45
2022/08/27 00:13:42;;;;;;;;;;;;;;;25.30;100.00;98880.38;5054598;28;19920;-47
2022/08/27 00:16:08;;;;;;;;;;;;;;;24.77;100.00;98888.84;5051314;28;19987;-45
2022/08/27 00:18:34;;;;;;;;;;;;;;;24.66;100.00;98881.13;5050608;28;19943;-45
2022/08/27 00:20:59;;;;;;;;;;;;;;;24.69;100.00;98886.09;5053359;28;21215;-46
2022/08/27 00:23:25;;;;;;;;;;;;;;;24.73;100.00;98876.94;5053235;28;19931;-46
2022/08/27 00:25:50;;;;;;;;;;;;;;;24.55;100.00;98875.03;5052916;28;19927;-45
2022/08/27 00:28:15;;;;;;;;;;;;;;;24.59;100.00;98876.41;5052655;28;20397;-45
2022/08/27 00:30:40;;;;;;;;;;;;;;;24.13;100.00;98877.97;5051150;28;19928;-45
2022/08/27 00:33:06;;;;;;;;;;;;;;;24.52;100.00;98871.84;5052481;28;20011;-45
2022/08/27 00:35:32;;;;;;;;;;;;;;;23.97;100.00;98877.66;5052240;28;19934;-44
2022/08/27 00:37:58;;;;;;;;;;;;;;;23.54;100.00;98878.81;5052180;28;20449;-45
2022/08/27 00:40:24;;;;;;;;;;;;;;;23.54;100.00;98868.31;5052204;28;19974;-45
2022/08/27 00:42:49;;;;;;;;;;;;;;;23.44;100.00;98875.31;5053108;28;19924;-45
2022/08/27 00:45:16;;;;;;;;;;;;;;;23.26;100.00;98875.13;5052490;28;19931;-45
2022/08/27 00:47:45;;;;;;;;;;;;;;;23.27;100.00;98871.53;5053631;28;20011;-46
2022/08/27 00:50:13;;;;;;;;;;;;;;;23.50;100.00;98861.66;5050404;28;19920;-44
2022/08/27 00:52:45;;;;;;;;;;;;;;;24.15;100.00;98857.59;5052642;28;21108;-45
2022/08/27 00:55:17;;;;;;;;;;;;;;;23.76;100.00;98852.31;5049980;28;19939;-45
2022/08/27 00:57:42;;;;;;;;;;;;;;;24.53;100.00;98866.44;5052273;28;19924;-46
2022/08/27 01:00:09;;;;;;;;;;;;;;;23.27;100.00;98872.38;5050414;28;19928;-46
2022/08/27 01:02:35;;;;;;;;;;;;;;;23.72;100.00;98869.31;5052744;28;20614;-46
2022/08/27 01:05:02;;;;;;;;;;;;;;;23.34;100.00;98870.88;5051583;28;19932;-45
2022/08/27 01:07:28;;;;;;;;;;;;;;;23.15;100.00;98862.94;5049003;28;19920;-45
2022/08/27 01:09:53;;;;;;;;;;;;;;;22.59;100.00;98871.19;5048606;28;19927;-45
2022/08/27 01:12:19;;;;;;;;;;;;;;;22.92;100.00;98872.72;5053037;28;19916;-45
2022/08/27 01:14:44;;;;;;;;;;;;;;;22.71;100.00;98875.38;5049851;28;19931;-45
2022/08/27 01:17:10;;;;;;;;;;;;;;;23.00;100.00;98872.13;5051144;28;19924;-45
2022/08/27 01:19:45;;;;;;;;;;;;;;;22.65;100.00;98873.28;5048984;28;19928;-46
2022/08/27 01:22:11;;;;;;;;;;;;;;;23.03;100.00;98869.22;5051708;28;19916;-46
2022/08/27 01:24:41;;;;;;;;;;;;;;;23.12;100.00;98868.44;5051978;28;19969;-45
2022/08/27 01:27:07;;;;;;;;;;;;;;;22.94;100.00;98870.81;5050295;28;20049;-46
2022/08/27 01:29:33;;;;;;;;;;;;;;;22.90;100.00;98867.63;5048482;28;20273;-45
2022/08/27 01:31:59;;;;;;;;;;;;;;;23.42;100.00;98859.69;5051851;28;19920;-45
2022/08/27 01:34:24;;;;;;;;;;;;;;;23.42;100.00;98862.31;5051370;28;19920;-45
2022/08/27 01:36:50;;;;;;;;;;;;;;;22.53;100.00;98865.50;5051240;28;19921;-45
2022/08/27 01:39:15;;;;;;;;;;;;;;;23.52;100.00;98857.91;5050886;28;19928;-45
2022/08/27 01:41:40;;;;;;;;;;;;;;;23.22;100.00;98864.06;5051959;28;19926;-45
2022/08/27 01:44:05;;;;;;;;;;;;;;;23.26;100.00;98865.44;5055353;28;19920;-45
2022/08/27 01:46:30;;;;;;;;;;;;;;;23.00;100.00;98877.38;5055997;28;20046;-45
2022/08/27 01:48:56;;;;;;;;;;;;;;;22.71;100.00;98878.84;5055621;28;20524;-45
2022/08/27 01:51:21;;;;;;;;;;;;;;;22.82;100.00;98877.94;5054826;28;19973;-45
2022/08/27 01:53:46;;;;;;;;;;;;;;;22.78;100.00;98884.41;5055806;28;19927;-45
2022/08/27 01:56:11;;;;;;;;;;;;;;;22.60;100.00;98881.53;5056021;28;19920;-45
2022/08/27 01:58:37;;;;;;;;;;;;;;;22.50;100.00;98878.84;5055665;28;19925;-47
2022/08/27 02:01:04;;;;;;;;;;;;;;;22.83;100.00;98882.25;5055354;28;19920;-45
2022/08/27 02:03:30;;;;;;;;;;;;;;;22.86;100.00;98879.34;5054962;28;19920;-45
2022/08/27 02:05:55;;;;;;;;;;;;;;;22.63;100.00;98883.91;5055225;28;19929;-45
2022/08/27 02:08:20;;;;;;;;;;;;;;;22.75;100.00;98887.28;5055161;28;19920;-45
2022/08/27 02:10:46;;;;;;;;;;;;;;;22.97;100.00;98884.53;5055633;28;20015;-45
2022/08/27 02:13:12;;;;;;;;;;;;;;;22.80;100.00;98879.84;5054499;28;19920;-45
2022/08/27 02:15:37;;;;;;;;;;;;;;;22.55;100.00;98887.16;5055237;28;19921;-45
2022/08/27 02:18:03;;;;;;;;;;;;;;;22.87;100.00;98883.63;5055566;28;19960;-46
2022/08/27 02:20:28;;;;;;;;;;;;;;;22.45;100.00;98886.28;5055615;28;19924;-45
2022/08/27 02:22:54;;;;;;;;;;;;;;;22.44;100.00;98889.03;5055251;28;20010;-45
2022/08/27 02:25:20;;;;;;;;;;;;;;;22.89;100.00;98886.97;5055607;28;19924;-46
2022/08/27 02:27:46;;;;;;;;;;;;;;;22.82;100.00;98887.63;5053580;28;20817;-46
2022/08/27 02:30:11;;;;;;;;;;;;;;;22.88;100.00;98882.69;5054269;28;19930;-47
2022/08/27 02:32:37;;;;;;;;;;;;;;;23.18;100.00;98875.78;5055021;28;19931;-46
2022/08/27 02:35:03;;;;;;;;;;;;;;;22.86;100.00;98876.72;5055823;28;19926;-48
2022/08/27 02:37:29;;;;;;;;;;;;;;;22.90;100.00;98875.50;5054858;28;19997;-46
2022/08/27 02:39:54;;;;;;;;;;;;;;;23.39;100.00;98881.81;5055733;28;19938;-47
2022/08/27 02:42:19;;;;;;;;;;;;;;;22.90;100.00;98888.63;5053458;28;20343;-46
2022/08/27 02:44:45;;;;;;;;;;;;;;;22.90;100.00;98880.75;5053825;28;19924;-46
2022/08/27 02:47:11;;;;;;;;;;;;;;;22.70;100.00;98879.81;5056115;28;20604;-46
2022/08/27 02:49:36;;;;;;;;;;;;;;;22.73;100.00;98887.41;5055317;28;19920;-49
2022/08/27 02:52:02;;;;;;;;;;;;;;;23.56;100.00;98872.47;5053548;28;19969;-47
2022/08/27 02:54:27;;;;;;;;;;;;;;;22.58;100.00;98874.75;5050741;28;20027;-47
2022/08/27 02:56:53;;;;;;;;;;;;;;;22.54;100.00;98879.44;5053645;28;20314;-47
2022/08/27 02:59:18;;;;;;;;;;;;;;;23.14;100.00;98877.84;5053656;28;19921;-47
2022/08/27 03:01:44;;;;;;;;;;;;;;;23.14;100.00;98875.22;5053264;28;20376;-46
2022/08/27 03:04:09;;;;;;;;;;;;;;;22.60;100.00;98876.28;5054002;28;19955;-49
2022/08/27 03:06:34;;;;;;;;;;;;;;;22.97;100.00;98881.06;5053279;28;19929;-46
2022/08/27 03:08:59;;;;;;;;;;;;;;;23.09;100.00;98879.22;5051999;28;19920;-47
2022/08/27 03:11:25;;;;;;;;;;;;;;;23.13;100.00;98865.69;5054500;28;19925;-46
2022/08/27 03:13:50;;;;;;;;;;;;;;;22.55;100.00;98867.97;5055649;28;19958;-45
2022/08/27 03:16:16;;;;;;;;;;;;;;;23.55;100.00;98864.69;5054339;28;19927;-49
2022/08/27 03:18:41;;;;;;;;;;;;;;;23.19;100.00;98869.56;5054731;28;19916;-46
2022/08/27 03:21:07;;;;;;;;;;;;;;;22.87;100.00;98870.50;5053606;28;19924;-46
2022/08/27 03:23:33;;;;;;;;;;;;;;;23.14;100.00;98871.75;5053833;28;19916;-46
2022/08/27 03:25:58;;;;;;;;;;;;;;;23.12;100.00;98871.88;5054321;28;19924;-46
2022/08/27 03:28:25;;;;;;;;;;;;;;;23.05;100.00;98877.81;5052143;28;19923;-46
2022/08/27 03:30:52;;;;;;;;;;;;;;;22.26;100.00;98873.00;5054390;28;20502;-45
2022/08/27 03:33:18;;;;;;;;;;;;;;;22.19;100.00;98879.69;5055004;28;20480;-45
2022/08/27 03:35:44;;;;;;;;;;;;;;;22.49;100.00;98882.44;5053334;28;19920;-45
2022/08/27 03:38:09;;;;;;;;;;;;;;;22.46;100.00;98882.69;5052963;28;19916;-45
2022/08/27 03:40:34;;;;;;;;;;;;;;;22.66;100.00;98881.03;5051846;28;19959;-45
2022/08/27 03:43:00;;;;;;;;;;;;;;;22.25;100.00;98889.72;5054230;28;19916;-47
2022/08/27 03:45:26;;;;;;;;;;;;;;;22.12;100.00;98889.84;5054299;28;20499;-46
2022/08/27 03:47:52;;;;;;;;;;;;;;;22.54;100.00;98887.31;5053474;28;19916;-45
2022/08/27 03:50:17;;;;;;;;;;;;;;;22.52;100.00;98882.19;5053318;28;19920;-45
2022/08/27 03:52:43;;;;;;;;;;;;;;;22.36;100.00;98887.03;5051125;28;19923;-45
2022/08/27 03:55:08;;;;;;;;;;;;;;;22.37;100.00;98890.50;5053276;28;20351;-45
2022/08/27 03:57:34;;;;;;;;;;;;;;;22.28;100.00;98885.06;5053819;28;20344;-46
2022/08/27 03:59:59;;;;;;;;;;;;;;;22.65;100.00;98886.38;5052623;28;20043;-45
2022/08/27 04:02:25;;;;;;;;;;;;;;;22.34;100.00;98878.47;5052741;28;19920;-46
2022/08/27 04:04:50;;;;;;;;;;;;;;;22.88;100.00;98887.94;5050190;28;19930;-46
2022/08/27 04:07:15;;;;;;;;;;;;;;;22.12;100.00;98889.84;5051309;28;19920;-46
2022/08/27 04:09:41;;;;;;;;;;;;;;;22.12;100.00;98888.06;5050545;28;19993;-46
2022/08/27 04:12:06;;;;;;;;;;;;;;;22.23;100.00;98894.25;5052000;28;19920;-47
2022/08/27 04:14:32;;;;;;;;;;;;;;;22.55;100.00;98883.72;5051301;28;19920;-46
2022/08/27 04:16:57;;;;;;;;;;;;;;;22.27;100.00;98882.56;5052762;28;19963;-46
2022/08/27 04:19:24;;;;;;;;;;;;;;;22.06;100.00;98891.19;5052882;28;19923;-47
2022/08/27 04:21:49;;;;;;;;;;;;;;;22.28;100.00;98894.69;5053811;28;19916;-47
2022/08/27 04:24:15;;;;;;;;;;;;;;;21.95;100.00;98899.09;5050490;28;19930;-48
2022/08/27 04:26:41;;;;;;;;;;;;;;;21.99;100.00;98897.91;5052527;28;19928;-46
2022/08/27 04:29:06;;;;;;;;;;;;;;;21.74;100.00;98895.59;5054044;28;19920;-48
2022/08/27 04:31:32;;;;;;;;;;;;;;;22.01;100.00;98898.59;5052811;28;19920;-46
2022/08/27 04:33:57;;;;;;;;;;;;;;;22.29;100.00;98885.88;5051982;28;19920;-47
2022/08/27 04:36:22;;;;;;;;;;;;;;;22.33;100.00;98895.19;5052736;28;20611;-46
2022/08/27 04:38:47;;;;;;;;;;;;;;;22.02;100.00;98895.00;5053487;28;20328;-46
2022/08/27 04:41:20;;;;;;;;;;;;;;;22.29;100.00;98904.25;5054148;28;19924;-49
2022/08/27 04:43:49;;;;;;;;;;;;;;;22.09;100.00;98901.41;5051343;28;19931;-47
2022/08/27 04:46:18;;;;;;;;;;;;;;;22.60;100.00;98905.16;5052338;28;20185;-48
2022/08/27 04:48:44;;;;;;;;;;;;;;;22.65;100.00;98904.75;5053090;28;19916;-47
2022/08/27 04:51:09;;;;;;;;;;;;;;;22.22;100.00;98911.78;5053444;28;20790;-47
2022/08/27 04:53:34;;;;;;;;;;;;;;;22.59;100.00;98908.75;5050988;28;19928;-46
2022/08/27 04:55:59;;;;;;;;;;;;;;;21.93;100.00;98906.25;5050535;28;20308;-46
2022/08/27 04:58:25;;;;;;;;;;;;;;;22.05;100.00;98905.25;5053160;28;19920;-46
2022/08/27 05:00:51;;;;;;;;;;;;;;;21.77;100.00;98905.81;5052432;28;19955;-47
2022/08/27 05:03:18;;;;;;;;;;;;;;;21.88;100.00;98908.41;5050345;28;19979;-47
2022/08/27 05:05:43;;;;;;;;;;;;;;;21.99;100.00;98903.13;5051242;28;19932;-46
2022/08/27 05:08:11;;;;;;;;;;;;;;;21.68;100.00;98905.56;5052476;28;19924;-47
2022/08/27 05:10:40;;;;;;;;;;;;;;;21.85;100.00;98908.63;5050636;28;20005;-49
2022/08/27 05:13:06;;;;;;;;;;;;;;;22.24;100.00;98909.06;5053042;28;19977;-46
2022/08/27 05:15:31;;;;;;;;;;;;;;;21.50;100.00;98907.03;5052245;28;19921;-47
2022/08/27 05:17:59;;;;;;;;;;;;;;;22.22;100.00;98913.59;5050687;28;20609;-47
2022/08/27 05:20:25;;;;;;;;;;;;;;;22.26;100.00;98917.59;5049373;28;19920;-47
2022/08/27 05:22:50;;;;;;;;;;;;;;;22.49;100.00;98907.88;5052167;28;19920;-47
2022/08/27 05:25:15;;;;;;;;;;;;;;;22.21;100.00;98910.09;5050451;28;20388;-48
2022/08/27 05:27:41;;;;;;;;;;;;;;;22.00;100.00;98907.41;5049364;28;19924;-46
2022/08/27 05:30:07;;;;;;;;;;;;;;;21.72;100.00;98904.38;5050121;28;20014;-48
2022/08/27 05:32:32;;;;;;;;;;;;;;;22.18;100.00;98914.75;5052184;28;19998;-48
2022/08/27 05:34:57;;;;;;;;;;;;;;;21.99;100.00;98905.75;5051359;28;19920;-48
2022/08/27 05:37:22;;;;;;;;;;;;;;;21.75;100.00;98915.59;5049570;28;20010;-46
2022/08/27 05:39:48;;;;;;;;;;;;;;;22.34;100.00;98912.56;5051524;28;20414;-47
2022/08/27 05:42:13;;;;;;;;;;;;;;;22.85;100.00;98914.44;5050962;28;19920;-46
2022/08/27 05:44:38;;;;;;;;;;;;;;;22.70;100.00;98910.50;5052143;28;20039;-49
2022/08/27 05:47:04;;;;;;;;;;;;;;;22.80;100.00;98916.63;5050801;28;19924;-47
2022/08/27 05:49:29;;;;;;;;;;;;;;;22.68;100.00;98917.66;5051749;28;19936;-47
2022/08/27 05:51:55;;;;;;;;;;;;;;;22.46;100.00;98921.22;5049663;28;19925;-48
2022/08/27 05:54:20;;;;;;;;;;;;;;;22.67;100.00;98926.47;5049428;28;20368;-47
2022/08/27 05:56:46;;;;;;;;;;;;;;;22.79;100.00;98927.28;5050741;28;20481;-46
2022/08/27 06:01:55;;;;;;;;;;;;;;;22.30;100.00;98927.72;5048919;28;20455;-49
2022/08/27 06:04:21;;;;;;;;;;;;;;;22.68;100.00;98922.91;5050007;28;19920;-47
2022/08/27 06:06:47;;;;;;;;;;;;;;;22.75;100.00;98924.88;5047232;28;20484;-47
2022/08/27 06:09:14;;;;;;;;;;;;;;;22.35;100.00;98922.09;5048544;28;20040;-46
2022/08/27 06:11:39;;;;;;;;;;;;;;;22.32;100.00;98932.84;5049670;28;19921;-47
2022/08/27 06:14:05;;;;;;;;;;;;;;;22.53;100.00;98928.47;5050676;28;20717;-48
2022/08/27 06:16:30;;;;;;;;;;;;;;;22.81;100.00;98936.69;5051702;28;19952;-47
2022/08/27 06:18:56;;;;;;;;;;;;;;;22.88;100.00;98935.19;5052622;28;20437;-47
2022/08/27 06:21:21;;;;;;;;;;;;;;;23.15;100.00;98933.88;5049070;28;19920;-47
2022/08/27 06:23:47;;;;;;;;;;;;;;;23.03;100.00;98937.50;5052459;28;19928;-47
2022/08/27 06:26:14;;;;;;;;;;;;;;;23.37;100.00;98931.03;5049719;28;19935;-46
2022/08/27 06:28:43;;;;;;;;;;;;;;;23.72;100.00;98926.31;5050969;28;19920;-47
2022/08/27 06:31:11;;;;;;;;;;;;;;;23.17;100.00;98934.53;5050194;28;19971;-46
2022/08/27 06:33:37;;;;;;;;;;;;;;;22.92;100.00;98941.88;5054025;28;20778;-46
2022/08/27 06:36:04;;;;;;;;;;;;;;;23.45;100.00;98940.09;5040799;28;19920;-47
2022/08/27 06:38:29;;;;;;;;;;;;;;;23.36;100.00;98939.06;5050336;28;19924;-48
2022/08/27 06:40:55;;;;;;;;;;;;;;;23.62;100.00;98931.53;5053016;28;20840;-47
2022/08/27 06:43:21;;;;;;;;;;;;;;;23.91;100.00;98933.47;5051839;28;19920;-47
2022/08/27 06:45:46;;;;;;;;;;;;;;;23.89;100.00;98930.13;5048267;28;19975;-47
2022/08/27 06:48:12;;;;;;;;;;;;;;;24.18;100.00;98931.00;5049560;28;19924;-46
2022/08/27 06:50:37;;;;;;;;;;;;;;;23.00;100.00;98943.03;5050979;28;19959;-48
2022/08/27 06:53:03;;;;;;;;;;;;;;;23.23;100.00;98928.78;5053983;28;19995;-46
2022/08/27 06:55:28;;;;;;;;;;;;;;;23.39;100.00;98937.00;5053946;28;19924;-48
2022/08/27 06:57:53;;;;;;;;;;;;;;;23.98;100.00;98934.56;5053136;28;20369;-47
2022/08/27 07:00:18;;;;;;;;;;;;;;;24.26;100.00;98932.09;5053263;28;19921;-49
2022/08/27 07:02:44;;;;;;;;;;;;;;;24.45;100.00;98926.84;5049907;28;21098;-47
2022/08/27 07:05:10;;;;;;;;;;;;;;;23.70;100.00;98936.16;5052244;28;19975;-47
2022/08/27 07:07:36;;;;;;;;;;;;;;;23.18;100.00;98947.56;5053685;28;19925;-47
2022/08/27 07:10:01;;;;;;;;;;;;;;;23.29;100.00;98944.03;5053892;28;20373;-46
2022/08/27 07:12:26;;;;;;;;;;;;;;;23.97;100.00;98932.88;5054857;28;20409;-46
2022/08/27 07:14:51;;;;;;;;;;;;;;;23.43;100.00;98945.47;5055838;28;19920;-47
2022/08/27 07:17:17;;;;;;;;;;;;;;;23.61;100.00;98942.22;5054050;28;19992;-46
2022/08/27 07:19:42;;;;;;;;;;;;;;;24.02;100.00;98935.97;5054853;28;19913;-47
2022/08/27 07:22:07;;;;;;;;;;;;;;;23.74;100.00;98938.41;5055237;28;19920;-48
2022/08/27 07:24:33;;;;;;;;;;;;;;;24.02;100.00;98943.84;5052984;28;20389;-48
2022/08/27 07:26:58;;;;;;;;;;;;;;;23.73;100.00;98943.75;5054397;28;19924;-47
2022/08/27 07:29:23;;;;;;;;;;;;;;;23.56;100.00;98950.47;5053577;28;19920;-49
2022/08/27 07:31:48;;;;;;;;;;;;;;;23.46;100.00;98949.63;5055063;28;19920;-49
2022/08/27 07:34:14;;;;;;;;;;;;;;;23.74;100.00;98948.94;5053472;28;19920;-49
2022/08/27 07:36:39;;;;;;;;;;;;;;;23.51;100.00;98953.50;5054611;28;20539;-47
2022/08/27 07:39:05;;;;;;;;;;;;;;;23.14;100.00;98956.66;5053974;28;19974;-46
2022/08/27 07:41:30;;;;;;;;;;;;;;;23.18;100.00;98952.81;5053216;28;19921;-48
2022/08/27 07:46:40;;;;;;;;;;;;;;;23.96;100.00;98960.19;5054146;28;20034;-48
2022/08/27 07:49:05;;;;;;;;;;;;;;;24.47;100.00;98956.50;5053948;28;19924;-48
2022/08/27 07:51:31;;;;;;;;;;;;;;;24.47;100.00;98967.03;5053743;28;20015;-48
2022/08/27 07:53:56;;;;;;;;;;;;;;;23.91;100.00;98965.03;5052804;28;20364;-50
2022/08/27 07:56:22;;;;;;;;;;;;;;;23.77;100.00;98964.44;5053188;28;19920;-47
2022/08/27 07:58:47;;;;;;;;;;;;;;;23.76;100.00;98965.38;5052064;28;21165;-50
2022/08/27 08:01:12;;;;;;;;;;;;;;;24.48;100.00;98963.44;5051397;28;20331;-48
2022/08/27 08:03:38;;;;;;;;;;;;;;;24.38;100.00;98970.47;5052349;28;19921;-47
2022/08/27 08:06:04;;;;;;;;;;;;;;;23.76;100.00;98978.53;5054025;28;19960;-47
2022/08/27 08:08:30;;;;;;;;;;;;;;;23.76;100.00;98985.59;5052511;28;20063;-50
2022/08/27 08:10:58;;;;;;;;;;;;;;;24.12;100.00;98973.63;5052799;28;20023;-50
2022/08/27 08:13:23;;;;;;;;;;;;;;;24.24;100.00;98982.22;5053441;28;19946;-47
2022/08/27 08:15:49;;;;;;;;;;;;;;;23.67;100.00;98981.91;5052870;28;19920;-49
2022/08/27 08:18:15;;;;;;;;;;;;;;;24.10;100.00;98978.19;5053827;28;20019;-50
2022/08/27 08:20:40;;;;;;;;;;;;;;;24.18;100.00;98982.78;5053387;28;19920;-48
2022/08/27 08:23:05;;;;;;;;;;;;;;;23.79;100.00;98985.34;5054100;28;20342;-47
2022/08/27 08:25:31;;;;;;;;;;;;;;;24.18;100.00;98982.78;5053135;28;19936;-47
2022/08/27 08:27:56;;;;;;;;;;;;;;;23.21;100.00;98996.38;5053366;28;19916;-46
2022/08/27 08:30:22;;;;;;;;;;;;;;;22.96;100.00;98993.16;5051062;28;20339;-47
2022/08/27 08:32:47;;;;;;;;;;;;;;;23.64;100.00;98995.34;5052592;28;19932;-47
2022/08/27 08:35:12;;;;;;;;;;;;;;;;;;5053710;28;19956;-46
2022/08/27 08:37:37;;;;;;;;;;;;;;;23.16;100.00;98998.56;5053786;28;19962;-47
2022/08/27 08:40:03;;;;;;;;;;;;;;;23.45;100.00;98990.03;5052616;28;19920;-48
2022/08/27 08:42:34;;;;;;;;;;;;;;;24.10;100.00;98987.91;5053573;28;19920;-47
2022/08/27 08:45:00;;;;;;;;;;;;;;;23.05;100.00;98998.63;5052695;28;20369;-48
2022/08/27 08:47:30;;;;;;;;;;;;;;;23.67;100.00;98997.69;5053421;28;19946;-46
2022/08/27 08:49:56;;;;;;;;;;;;;;;24.17;100.00;98987.19;5034416;28;20016;-49
2022/08/27 08:52:33;;;;;;;;;;;;;;;23.93;100.00;98990.22;5053306;28;19938;-46
2022/08/27 08:55:04;;;;;;;;;;;;;;;23.85;100.00;98997.94;5053096;28;19920;-49
2022/08/27 08:57:30;;;;;;;;;;;;;;;24.00;100.00;98988.72;5052829;28;20273;-47
2022/08/27 08:59:56;;;;;;;;;;;;;;;23.27;100.00;98995.88;5052364;28;19927;-48
2022/08/27 09:02:22;;;;;;;;;;;;;;;23.29;100.00;99001.84;5050962;28;20538;-46
2022/08/27 09:04:47;;;;;;;;;;;;;;;24.00;100.00;98996.59;5052461;28;19920;-47
2022/08/27 09:07:18;;;;;;;;;;;;;;;24.38;100.00;98994.16;5052274;28;20430;-47
2022/08/27 09:09:52;;;;;;;;;;;;;;;24.47;100.00;98998.63;5050456;28;19920;-46
2022/08/27 09:12:25;;;;;;;;;;;;;;;24.56;100.00;98991.72;5052786;28;20440;-47
2022/08/27 09:14:56;;;;;;;;;;;;;;;24.79;100.00;98981.72;5052250;28;19920;-48
2022/08/27 09:17:22;;;;;;;;;;;;;;;23.97;100.00;98993.41;5052305;28;20381;-49
2022/08/27 09:19:47;;;;;;;;;;;;;;;24.36;100.00;98985.59;5052815;28;20008;-46
2022/08/27 09:22:31;;;;;;;;;;;;;;;24.43;100.00;98991.97;5051386;28;20003;-49
2022/08/27 09:24:59;;;;;;;;;;;;;;;24.98;100.00;98992.25;5052747;28;19959;-47
2022/08/27 09:27:25;;;;;;;;;;;;;;;25.39;100.00;98992.88;5052474;28;19920;-45
2022/08/27 09:29:51;;;;;;;;;;;;;;;24.93;100.00;98994.47;5052629;28;20409;-47
2022/08/27 09:32:21;;;;;;;;;;;;;;;25.14;100.00;99001.38;5050486;28;20118;-48
2022/08/27 09:34:46;;;;;;;;;;;;;;;24.66;100.00;99002.25;5052567;28;19932;-46
2022/08/27 09:37:16;;;;;;;;;;;;;;;25.15;100.00;98997.75;5050809;28;19920;-47
2022/08/27 09:39:51;;;;;;;;;;;;;;;25.64;100.00;98988.75;5051050;28;19924;-48
2022/08/27 09:42:31;;;;;;;;;;;;;;;25.07;100.00;99002.91;5051925;28;19925;-46
2022/08/27 09:44:57;;;;;;;;;;;;;;;25.13;100.00;98994.44;5050364;28;19935;-46
2022/08/27 09:47:22;;;;;;;;;;;;;;;24.47;100.00;99011.78;5052601;28;19924;-46
2022/08/27 09:49:48;;;;;;;;;;;;;;;25.14;100.00;99001.38;5050772;28;20467;-47
2022/08/27 09:52:49;;;;;;;;;;;;;;;25.82;100.00;98994.06;5050041;28;20335;-45
2022/08/27 09:55:44;;;;;;;;;;;;;;;25.64;100.00;98991.38;4988081;28;19953;-46
2022/08/27 09:58:17;;;;;;;;;;;;;;;25.23;100.00;98990.84;5037675;28;19921;-46
2022/08/27 10:00:42;;;;;;;;;;;;;;;24.91;100.00;98992.97;5051246;28;19927;-46
2022/08/27 10:03:08;;;;;;;;;;;;;;;25.19;100.00;98993.91;5048822;28;20450;-47
2022/08/27 10:05:53;;;;;;;;;;;;;;;25.40;100.00;98991.88;5054942;28;19924;-47
2022/08/27 10:08:21;;;;;;;;;;;;;;;24.88;100.00;98999.31;5054789;28;19932;-46
2022/08/27 10:10:56;;;;;;;;;;;;;;;25.39;100.00;98992.88;5055296;28;19924;-46
2022/08/27 10:13:33;;;;;;;;;;;;;;;25.05;100.00;98995.97;5054251;28;19943;-47
2022/08/27 10:16:01;;;;;;;;;;;;;;;25.14;100.00;98998.75;5053567;28;20361;-48
2022/08/27 10:18:45;;;;;;;;;;;;;;;25.07;100.00;99001.09;5056549;28;19916;-46
2022/08/27 10:21:22;;;;;;;;;;;;;;;25.44;100.00;98998.53;5055357;28;19916;-46
2022/08/27 10:24:00;;;;;;;;;;;;;;;25.36;100.00;99001.06;5052672;28;19921;-46
2022/08/27 10:26:27;;;;;;;;;;;;;;;25.35;100.00;99002.03;5055849;28;19929;-46
2022/08/27 10:29:01;;;;;;;;;;;;;;;25.82;100.00;98998.53;5053483;28;19968;-46
2022/08/27 10:31:38;;;;;;;;;;;;;;;25.70;100.00;99000.50;5057020;28;19974;-46
2022/08/27 10:34:07;;;;;;;;;;;;;;;26.17;100.00;98997.78;5054888;28;19956;-46
2022/08/27 10:36:38;;;;;;;;;;;;;;;26.15;100.00;99001.56;5055592;28;19924;-46
2022/08/27 10:39:03;;;;;;;;;;;;;;;26.00;100.00;99004.72;5056358;28;19970;-45
2022/08/27 10:41:32;;;;;;;;;;;;;;;25.54;100.00;99009.03;5056076;28;19963;-45
2022/08/27 10:44:17;;;;;;;;;;;;;;;26.59;100.00;98997.22;5052671;28;19916;-45
2022/08/27 10:47:01;;;;;;;;;;;;;;;26.40;100.00;98995.53;5054588;28;19924;-46
2022/08/27 10:49:36;;;;;;;;;;;;;;;26.78;100.00;99003.34;5049121;28;19921;-46
2022/08/27 10:52:01;;;;;;;;;;;;;;;26.77;100.00;99001.69;5047758;28;19924;-45
2022/08/27 10:54:41;;;;;;;;;;;;;;;25.73;100.00;99008.16;5052409;28;19942;-46
2022/08/27 10:57:08;;;;;;;;;;;;;;;26.08;100.00;99006.59;5049626;28;19925;-46
2022/08/27 10:59:39;;;;;;;;;;;;;;;24.80;100.00;99015.00;5051417;28;20015;-45
2022/08/27 11:02:04;;;;;;;;;;;;;;;26.11;100.00;99003.66;5053120;28;19955;-46
2022/08/27 11:04:30;;;;;;;;;;;;;;;26.06;100.00;99004.09;5052558;28;20034;-45
2022/08/27 11:07:02;;;;;;;;;;;;;;;24.30;100.00;99012.44;5051193;28;19925;-46
2022/08/27 11:09:28;;;;;;;;;;;;;;;25.23;100.00;99005.81;5050262;28;19917;-46
2022/08/27 11:11:54;;;;;;;;;;;;;;;26.04;100.00;99000.78;5053361;28;19982;-46
2022/08/27 11:14:30;;;;;;;;;;;;;;;25.96;100.00;98997.25;5054074;28;19921;-46
2022/08/27 11:17:02;;;;;;;;;;;;;;;25.78;100.00;99000.63;5053754;28;19920;-46
2022/08/27 11:19:30;;;;;;;;;;;;;;;26.15;100.00;98991.81;5051505;28;19921;-47
2022/08/27 11:22:04;;;;;;;;;;;;;;;25.09;100.00;98998.31;5049708;28;19925;-46
2022/08/27 11:24:35;;;;;;;;;;;;;;;24.69;100.00;99001.97;5050598;28;19925;-46
2022/08/27 11:27:02;;;;;;;;;;;;;;;25.16;100.00;98999.44;5052709;28;20800;-46
2022/08/27 11:29:36;;;;;;;;;;;;;;;24.68;100.00;98995.03;5051316;28;19940;-46
2022/08/27 11:32:07;;;;;;;;;;;;;;;24.84;100.00;99000.59;5052825;28;19951;-46
2022/08/27 11:34:42;;;;;;;;;;;;;;;24.96;100.00;98994.19;5054267;28;19921;-45
2022/08/27 11:37:14;;;;;;;;;;;;;;;25.25;100.00;99003.88;5050201;28;19920;-46
2022/08/27 11:39:54;;;;;;;;;;;;;;;25.12;100.00;99001.50;5052028;28;19920;-45
2022/08/27 11:42:40;;;;;;;;;;;;;;;24.23;100.00;99016.59;5053719;28;19927;-45
2022/08/27 11:45:14;;;;;;;;;;;;;;;25.13;100.00;99003.16;5052586;28;19978;-45
2022/08/27 11:47:40;;;;;;;;;;;;;;;25.31;100.00;99002.47;5052288;28;19926;-45
2022/08/27 11:50:07;;;;;;;;;;;;;;;25.75;100.00;98998.28;5049264;28;19924;-45
2022/08/27 11:52:35;;;;;;;;;;;;;;;25.82;100.00;99001.16;5049500;28;19928;-46
2022/08/27 11:55:14;;;;;;;;;;;;;;;25.67;100.00;98998.16;5052658;28;19935;-45
2022/08/27 11:57:39;;;;;;;;;;;;;;;25.65;100.00;99000.13;5052164;28;21202;-46
2022/08/27 12:00:11;;;;;;;;;;;;;;;25.99;100.00;99002.22;5051119;28;19920;-45
2022/08/27 12:02:36;;;;;;;;;;;;;;;24.73;100.00;99008.63;5051763;28;19920;-47
2022/08/27 12:05:09;;;;;;;;;;;;;;;25.78;100.00;99003.25;5049206;28;19978;-47
2022/08/27 12:07:36;;;;;;;;;;;;;;;25.74;100.00;99007.16;5052032;28;19924;-46
2022/08/27 12:10:01;;;;;;;;;;;;;;;25.92;100.00;99011.69;5052556;28;20343;-44
2022/08/27 12:12:35;;;;;;;;;;;;;;;24.30;100.00;99017.72;5050398;28;20047;-44
2022/08/27 12:15:00;;;;;;;;;;;;;;;25.27;100.00;99011.63;5050424;28;19920;-46
2022/08/27 12:17:25;;;;;;;;;;;;;;;25.78;100.00;99007.72;5052420;28;20018;-46
2022/08/27 12:20:04;;;;;;;;;;;;;;;24.77;100.00;99023.16;5053456;28;19923;-47
2022/08/27 12:23:38;;;;;;;;;;;;;;;24.98;100.00;99012.50;5050952;28;19955;-47
2022/08/27 12:25:21;;;;;;;;;;;;;;;25.39;100.00;99013.97;5049130;28;19916;-46
2022/08/27 12:27:53;;;;;;;;;;;;;;;24.99;100.00;99014.97;5044519;28;20468;-46
2022/08/27 12:30:20;;;;;;;;;;;;;;;25.35;100.00;99017.84;5051187;28;20606;-47
2022/08/27 12:32:45;;;;;;;;;;;;;;;25.64;100.00;99009.03;5049839;28;20852;-45
2022/08/27 12:35:12;;;;;;;;;;;;;;;26.31;100.00;99014.09;5049796;28;19928;-45
2022/08/27 12:37:41;;;;;;;;;;;;;;;26.40;100.00;99006.09;5050569;28;19920;-46
2022/08/27 12:40:27;;;;;;;;;;;;;;;26.13;100.00;99008.78;5042191;28;19921;-46
2022/08/27 12:43:04;;;;;;;;;;;;;;;26.10;100.00;99009.94;5050761;28;19925;-47
2022/08/27 12:45:29;;;;;;;;;;;;;;;26.06;100.00;99003.28;5052080;28;19935;-46